Neon Iraklion, Greece

10:58 PM EET on December 05, 2016 (GMT +0200)
n iraklio | | Change Station

Elev 630 ft 38.05 °N, 23.76 °E | Updated 9 seconds ago

Partly Cloudy
Partly Cloudy
45.6 °F
Feels Like 40 °F
N
11.4
Wind Variable Wind from NNE
Gusts 11.4 mph

Today
High -- | Low -- °F
--% Chance of Precip.
Yesterday
High -- | Low -- °F
Precip. -- in
Pressure 30.48 in
Visibility 6.2 miles
Clouds Few 3000 ft
Windchill 40 °F
Dew Point 35 °F
Humidity 66%
Rainfall 0.00 in
Snow Depth Not available.
7:26 AM 5:05 PM
Waxing Crescent, 34% visible
METAR LGTG 051950Z 00000KT 9999 FEW030 04/00 Q1032 RMK FEW080 BLU
Pressure 30.48 in
Visibility 6.2 miles
Clouds Few 3000 ft
Windchill 40 °F
Dew Point 35 °F
Humidity 66%
Rainfall 0.00 in
Snow Depth Not available.
7:26 AM 5:05 PM
Waxing Crescent, 34% visible
METAR LGTG 051950Z 00000KT 9999 FEW030 04/00 Q1032 RMK FEW080 BLU

10-Day Weather Forecast

×

Almanac

Astronomy

Dec. 05, 2016 Rise Set
Actual Time
Civil Twilight
Nautical Twilight
Astronomical Twilight
Moon
Length of Visible Light
Length of Day
Tomorrow will be .
, % of the Moon is Illuminated

Today's Extremes

Country Highs Country Lows

Community

WunderPhotos

Upload Photos

1,955,861 photos uploaded!

WunderBlog® & News

Nearby

Air Quality

  Air Quality AQ Index Pollutant
Not available.

Snow Depth

Station Depth Elevation

Earthquake Activity

City Distance Mag. Time & Date
Minimum magnitude displayed is 2.5.

Coastal Water Temperatures

Place Temperature

Stations

Nearby Weather Stations

Station Location Temp. Windchill Dew Point Humidity Wind Precip. Elev Updated Type